createdAt,value
2023-04-10T00:00:38.158Z,1.00
2023-04-10T00:03:05.897Z,99.90
2023-04-10T00:05:33.271Z,99.90
2023-04-10T00:08:00.870Z,99.90
2023-04-10T00:10:30.434Z,1.00
2023-04-10T00:12:58.933Z,1.00
2023-04-10T00:15:25.925Z,1.00
2023-04-10T00:17:55.242Z,1.00
2023-04-10T00:20:23.565Z,1.00
2023-04-10T00:22:50.720Z,1.00
2023-04-10T00:25:17.962Z,1.00
2023-04-10T00:27:44.973Z,99.90
2023-04-10T00:30:12.045Z,99.90
2023-04-10T00:32:39.079Z,1.00
2023-04-10T00:37:34.961Z,1.00
2023-04-10T00:40:02.047Z,65.20
2023-04-10T00:42:29.055Z,16.70
2023-04-10T00:44:56.044Z,1.00
2023-04-10T00:47:23.045Z,1.00
2023-04-10T00:49:50.457Z,5.20
2023-04-10T00:52:17.843Z,1.00
2023-04-10T00:54:44.931Z,1.00
2023-04-10T00:57:12.332Z,1.00
2023-04-10T01:02:07.423Z,1.00
2023-04-10T01:04:34.802Z,15.80
2023-04-10T01:07:21.559Z,99.90
2023-04-10T01:10:07.076Z,99.90
2023-04-10T01:12:58.670Z,99.90
2023-04-10T01:15:30.892Z,99.90
2023-04-10T01:18:07.431Z,1.00
2023-04-10T01:20:39.616Z,99.90
2023-04-10T01:23:47.972Z,99.90
2023-04-10T01:26:19.765Z,1.00
2023-04-10T01:28:53.841Z,97.50
2023-04-10T01:49:27.807Z,1.00
2023-04-10T01:52:02.395Z,1.00
2023-04-10T01:54:32.747Z,1.00
2023-04-10T01:57:02.156Z,1.00
2023-04-10T01:59:31.214Z,1.00
2023-04-10T02:02:02.044Z,1.00
2023-04-10T02:04:29.327Z,1.00
2023-04-10T02:07:07.697Z,1.00
2023-04-10T02:09:55.675Z,1.00
2023-04-10T02:12:30.282Z,1.00
2023-04-10T02:15:01.975Z,1.00
2023-04-10T02:17:31.188Z,1.00
2023-04-10T02:19:59.506Z,1.00
2023-04-10T02:22:27.700Z,1.00
2023-04-10T02:24:54.851Z,28.20
2023-04-10T02:27:36.291Z,1.00
2023-04-10T02:30:04.950Z,1.00
2023-04-10T02:32:34.770Z,1.00
2023-04-10T02:35:02.907Z,1.00
2023-04-10T02:37:31.389Z,1.00
2023-04-10T02:40:00.686Z,1.00
2023-04-10T02:42:32.295Z,1.00
2023-04-10T02:45:01.314Z,1.00
2023-04-10T02:47:34.150Z,1.00
2023-04-10T02:50:01.298Z,1.00
2023-04-10T02:52:33.021Z,1.00
2023-04-10T02:55:00.034Z,1.00
2023-04-10T02:57:32.197Z,1.00
2023-04-10T02:59:59.178Z,1.00
2023-04-10T03:02:28.433Z,1.00
2023-04-10T03:04:58.976Z,1.00
2023-04-10T03:07:28.165Z,1.00
2023-04-10T03:09:55.118Z,1.00
2023-04-10T03:12:22.216Z,1.00
2023-04-10T03:14:49.210Z,1.00
2023-04-10T03:17:16.189Z,1.00
2023-04-10T03:19:43.259Z,1.00
2023-04-10T03:22:11.087Z,1.00
2023-04-10T03:24:41.066Z,1.00
2023-04-10T03:27:08.118Z,1.90
2023-04-10T03:29:35.155Z,20.60
2023-04-10T03:32:02.432Z,1.00
2023-04-10T03:34:30.434Z,16.00
2023-04-10T03:36:57.448Z,37.00
2023-04-10T03:39:24.688Z,5.90
2023-04-10T03:41:51.700Z,7.80
2023-04-10T03:44:19.762Z,2.30
2023-04-10T03:46:46.760Z,11.80
2023-04-10T03:49:13.741Z,17.00
2023-04-10T03:51:41.140Z,21.50
2023-04-10T03:54:08.103Z,26.50
2023-04-10T03:56:35.361Z,74.90
2023-04-10T03:59:02.393Z,62.30
2023-04-10T04:01:32.710Z,76.90
2023-04-10T04:04:05.107Z,58.60
2023-04-10T04:06:50.448Z,50.10
2023-04-10T04:09:20.667Z,38.60
2023-04-10T04:12:08.127Z,8.60
2023-04-10T04:14:53.719Z,46.80
2023-04-10T04:17:23.330Z,20.90
2023-04-10T04:19:57.844Z,19.60
2023-04-10T04:22:44.808Z,22.40
2023-04-10T04:25:34.672Z,94.70
2023-04-10T04:28:04.353Z,44.50
2023-04-10T04:30:35.712Z,49.70
2023-04-10T04:33:25.582Z,37.30
2023-04-10T04:35:58.235Z,26.30
2023-04-10T04:38:55.492Z,20.00
2023-04-10T04:41:30.731Z,15.80
2023-04-10T04:44:10.298Z,17.40
2023-04-10T04:46:51.101Z,14.10
2023-04-10T04:49:40.981Z,20.10
2023-04-10T04:52:28.036Z,28.00
2023-04-10T04:55:17.668Z,33.60
2023-04-10T04:58:05.404Z,50.90
2023-04-10T05:00:44.527Z,71.50
2023-04-10T05:03:32.595Z,88.70
2023-04-10T05:06:22.913Z,99.00
2023-04-10T05:09:09.497Z,1.00
2023-04-10T05:12:06.006Z,1.00
2023-04-10T05:14:52.038Z,4.20
2023-04-10T05:17:37.362Z,1.00
2023-04-10T05:20:14.449Z,1.00
2023-04-10T05:22:56.152Z,99.90
2023-04-10T05:25:46.169Z,1.00
2023-04-10T05:28:19.593Z,1.00
2023-04-10T05:31:07.168Z,2.00
2023-04-10T05:33:50.691Z,1.00
2023-04-10T05:36:39.232Z,1.00
2023-04-10T05:39:20.577Z,99.90
2023-04-10T05:41:59.068Z,99.90
2023-04-10T05:44:31.498Z,99.90
2023-04-10T05:47:18.690Z,99.90
2023-04-10T05:49:57.599Z,97.60
2023-04-10T05:52:42.898Z,99.90
2023-04-10T05:55:33.088Z,99.90
2023-04-10T05:58:14.918Z,99.90
2023-04-10T06:00:59.315Z,83.40
2023-04-10T06:03:48.091Z,99.90
2023-04-10T06:06:17.256Z,1.00
2023-04-10T06:08:44.868Z,1.00
2023-04-10T06:11:11.964Z,1.00
2023-04-10T06:13:41.344Z,1.00
2023-04-10T06:16:09.122Z,1.00
2023-04-10T06:18:37.706Z,1.00
2023-04-10T06:21:05.056Z,1.00
2023-04-10T06:23:32.291Z,1.00
2023-04-10T06:26:00.352Z,1.00
2023-04-10T06:28:27.552Z,1.00
2023-04-10T06:30:58.268Z,1.00
2023-04-10T06:33:31.215Z,1.00
2023-04-10T06:35:59.115Z,1.00
2023-04-10T06:38:26.282Z,1.00
2023-04-10T06:40:53.517Z,1.00
2023-04-10T06:43:20.467Z,1.00
2023-04-10T06:45:48.804Z,1.00
2023-04-10T06:48:15.789Z,1.00
2023-04-10T06:50:42.919Z,1.00
2023-04-10T06:53:09.948Z,1.00
2023-04-10T06:55:37.624Z,1.00
2023-04-10T06:58:04.780Z,1.00
2023-04-10T07:02:59.293Z,1.00
2023-04-10T07:05:26.352Z,1.00
2023-04-10T07:07:53.423Z,1.00
2023-04-10T07:10:20.815Z,1.00
2023-04-10T07:12:47.936Z,1.00
2023-04-10T07:15:14.911Z,1.00
2023-04-10T07:17:42.499Z,1.00
2023-04-10T07:20:10.493Z,1.00
2023-04-10T07:22:37.628Z,1.00
2023-04-10T07:25:05.040Z,1.00
2023-04-10T07:27:32.261Z,1.00
2023-04-10T07:29:59.182Z,1.00
2023-04-10T07:32:26.945Z,1.00
2023-04-10T07:34:54.230Z,1.00
2023-04-10T07:37:21.305Z,1.00
2023-04-10T07:39:48.281Z,1.00
2023-04-10T07:42:15.390Z,1.00
2023-04-10T07:44:42.307Z,1.00
2023-04-10T07:49:36.791Z,99.90
2023-04-10T07:52:03.868Z,1.00
2023-04-10T07:54:34.432Z,99.90
2023-04-10T07:57:01.456Z,99.90
2023-04-10T07:59:28.786Z,99.90
2023-04-10T08:01:56.158Z,99.90
2023-04-10T08:04:23.567Z,99.90
2023-04-10T08:06:50.861Z,99.90
2023-04-10T08:09:17.931Z,99.90
2023-04-10T08:11:44.918Z,99.90
2023-04-10T08:14:13.449Z,99.90
2023-04-10T08:16:45.336Z,99.90
2023-04-10T08:19:12.502Z,99.90
2023-04-10T08:21:39.450Z,99.90
2023-04-10T08:24:06.568Z,99.90
2023-04-10T08:26:33.525Z,99.90
2023-04-10T08:29:00.963Z,99.90
2023-04-10T08:31:29.329Z,99.90
2023-04-10T08:33:57.163Z,95.90
2023-04-10T08:36:24.655Z,99.90
2023-04-10T08:38:51.588Z,99.90
2023-04-10T08:41:20.092Z,99.90
2023-04-10T08:43:47.433Z,99.90
2023-04-10T08:46:15.139Z,99.90
2023-04-10T08:49:03.966Z,99.90
2023-04-10T08:54:23.342Z,99.90
2023-04-10T08:56:53.995Z,99.90
2023-04-10T08:59:21.231Z,99.90
2023-04-10T09:01:49.089Z,99.90
2023-04-10T09:04:20.434Z,99.90
2023-04-10T09:06:47.701Z,99.90
2023-04-10T09:09:14.686Z,99.90
2023-04-10T09:11:56.459Z,99.90
2023-04-10T09:14:25.679Z,99.90
2023-04-10T09:16:55.097Z,99.90
2023-04-10T09:19:33.686Z,99.90
2023-04-10T09:22:01.071Z,99.90
2023-04-10T09:24:28.449Z,99.90
2023-04-10T09:26:56.249Z,1.00
2023-04-10T09:29:23.230Z,1.00
2023-04-10T09:31:51.357Z,1.00
2023-04-10T09:34:23.698Z,16.20
2023-04-10T09:36:59.870Z,67.70
2023-04-10T09:39:36.086Z,1.50
2023-04-10T09:42:03.108Z,99.90
2023-04-10T09:44:37.381Z,76.30
2023-04-10T09:47:22.976Z,99.90
2023-04-10T09:49:56.792Z,99.90
2023-04-10T09:52:29.115Z,99.90
2023-04-10T09:55:08.638Z,99.90
2023-04-10T09:57:36.422Z,99.90
2023-04-10T10:00:08.154Z,99.90
2023-04-10T10:02:41.716Z,99.90
2023-04-10T10:05:10.113Z,99.90
2023-04-10T10:07:38.735Z,1.00
2023-04-10T10:10:09.231Z,1.00
2023-04-10T10:20:32.900Z,99.90
2023-04-10T10:23:03.581Z,99.90
2023-04-10T10:25:31.823Z,99.90
2023-04-10T10:28:03.604Z,99.90
2023-04-10T10:30:33.865Z,99.90
2023-04-10T10:33:07.600Z,99.90
2023-04-10T10:35:38.057Z,99.90
2023-04-10T10:38:06.283Z,99.90
